Time;durP1;ratioP1;P1;durP2;ratioP2;P2;SDS_P1;SDS_P2;PMS_P1;PMS_P2;Temp;Humidity;BMP_temperature;BMP_pressure;BME280_temperature;BME280_humidity;BME280_pressure;Samples;Min_cycle;Max_cycle;Signal;HPM_P1;HPM_P2
2022/02/15 00:02:01;;;;;;;6.47;2.25;;;;;;;;;;10493348;28;20029;-72
2022/02/15 00:07:05;;;;;;;4.93;1.85;;;;;;;;;;10481102;28;20135;-73
2022/02/15 00:12:10;;;;;;;6.40;3.00;;;;;;;;;;10483429;28;20063;-73
2022/02/15 00:17:19;;;;;;;5.40;2.50;;;;;;;;;;10474883;28;20044;-72
2022/02/15 00:22:23;;;;;;;11.48;3.20;;;;;;;;;;10502524;28;20059;-73
2022/02/15 00:27:27;;;;;;;10.40;2.50;;;;;;;;;;10478857;28;20059;-73
2022/02/15 00:32:30;;;;;;;;;;;;;;;;;;10473267;28;20075;-71
2022/02/15 00:37:33;;;;;;;5.10;2.40;;;;;;;;;;10487258;28;19924;-72
2022/02/15 00:42:39;;;;;;;5.22;2.50;;;;;;;;;;10473708;28;20055;-75
2022/02/15 00:47:42;;;;;;;3.20;2.05;;;;;;;;;;10493449;28;20135;-72
2022/02/15 00:52:45;;;;;;;6.43;2.83;;;;;;;;;;10492555;28;20503;-72
2022/02/15 00:57:50;;;;;;;4.03;1.67;;;;;;;;;;10472019;28;20420;-72
2022/02/15 01:02:55;;;;;;;6.10;2.55;;;;;;;;;;10493195;28;20786;-71
2022/02/15 01:07:58;;;;;;;2.58;1.63;;;;;;;;;;10487766;28;20036;-70
2022/02/15 01:13:03;;;;;;;9.55;3.45;;;;;;;;;;10476256;28;20122;-70
2022/02/15 01:18:07;;;;;;;5.93;2.95;;;;;;;;;;10483751;28;20048;-71
2022/02/15 01:23:10;;;;;;;6.07;2.83;;;;;;;;;;10477313;28;20067;-70
2022/02/15 01:28:15;;;;;;;5.73;2.40;;;;;;;;;;10493912;28;20121;-73
2022/02/15 01:33:18;;;;;;;4.60;1.98;;;;;;;;;;10497460;28;20032;-72
2022/02/15 01:38:22;;;;;;;7.85;2.72;;;;;;;;;;10482883;28;20055;-70
2022/02/15 01:43:27;;;;;;;4.88;1.85;;;;;;;;;;10484776;28;20028;-75
2022/02/15 01:48:30;;;;;;;;;;;;;;;;;;10470397;28;20044;-74
2022/02/15 01:53:33;;;;;;;5.60;2.40;;;;;;;;;;10487230;28;19921;-72
2022/02/15 01:58:37;;;;;;;3.45;1.63;;;;;;;;;;10459585;28;20102;-72
2022/02/15 02:03:40;;;;;;;0.87;0.67;;;;;;;;;;10470352;28;20453;-72
2022/02/15 02:08:44;;;;;;;2.17;1.63;;;;;;;;;;10491871;28;20040;-72
2022/02/15 02:13:48;;;;;;;2.50;0.90;;;;;;;;;;10498254;28;20102;-73
2022/02/15 02:18:51;;;;;;;3.03;1.43;;;;;;;;;;10496992;28;20044;-71
2022/02/15 02:23:58;;;;;;;3.47;1.87;;;;;;;;;;10483469;28;20125;-71
2022/02/15 02:29:02;;;;;;;6.27;2.13;;;;;;;;;;10483173;28;20044;-72
2022/02/15 02:34:06;;;;;;;2.30;1.27;;;;;;;;;;10479136;28;20114;-72
2022/02/15 02:39:10;;;;;;;3.17;1.87;;;;;;;;;;10490107;28;20043;-73
2022/02/15 02:44:13;;;;;;;;;;;;;;;;;;10525175;22;20135;-75
2022/02/15 02:49:16;;;;;;;3.70;1.38;;;;;;;;;;10517600;28;20384;-75
2022/02/15 02:54:20;;;;;;;2.93;1.57;;;;;;;;;;10479137;28;20043;-76
2022/02/15 02:59:22;;;;;;;;;;;;;;;;;;10498980;28;20035;-76
2022/02/15 03:04:25;;;;;;;4.07;1.73;;;;;;;;;;10483981;28;19971;-76
2022/02/15 03:09:30;;;;;;;5.30;1.90;;;;;;;;;;10471678;28;20051;-74
2022/02/15 03:14:33;;;;;;;;;;;;;;;;;;10487585;28;20044;-75
2022/02/15 03:19:35;;;;;;;6.57;2.30;;;;;;;;;;10481092;28;19924;-75
2022/02/15 03:24:40;;;;;;;3.60;1.53;;;;;;;;;;10500879;28;20052;-74
2022/02/15 03:29:42;;;;;;;;;;;;;;;;;;10497420;28;20040;-75
2022/02/15 03:34:45;;;;;;;3.77;1.77;;;;;;;;;;10485888;28;19920;-75
2022/02/15 03:39:49;;;;;;;;;;;;;;;;;;10494292;28;20345;-75
2022/02/15 03:44:54;;;;;;;2.80;1.40;;;;;;;;;;10503955;28;21139;-74
2022/02/15 03:50:01;;;;;;;2.47;1.13;;;;;;;;;;10494407;28;20383;-76
2022/02/15 03:55:06;;;;;;;1.00;0.57;;;;;;;;;;10481296;28;20409;-75
2022/02/15 04:00:11;;;;;;;3.45;1.45;;;;;;;;;;10475441;28;20046;-74
2022/02/15 04:05:14;;;;;;;4.10;1.37;;;;;;;;;;10493001;28;20191;-74
2022/02/15 04:10:17;;;;;;;2.83;1.63;;;;;;;;;;10471480;28;20052;-74
2022/02/15 04:15:22;;;;;;;2.63;1.20;;;;;;;;;;10499734;28;20037;-75
2022/02/15 04:20:24;;;;;;;;;;;;;;;;;;10499315;28;20139;-75
2022/02/15 04:25:27;;;;;;;4.07;1.80;;;;;;;;;;10475532;28;19975;-76
2022/02/15 04:30:32;;;;;;;1.08;0.77;;;;;;;;;;10478059;28;20040;-76
2022/02/15 04:35:35;;;;;;;2.08;0.82;;;;;;;;;;10505173;28;20049;-75
2022/02/15 04:40:39;;;;;;;4.07;1.70;;;;;;;;;;10490712;28;20365;-75
2022/02/15 04:45:43;;;;;;;1.67;1.17;;;;;;;;;;10499122;28;20074;-77
2022/02/15 04:50:46;;;;;;;2.95;1.17;;;;;;;;;;10478127;28;20059;-74
2022/02/15 04:55:48;;;;;;;5.40;1.80;;;;;;;;;;10475684;28;20438;-74
2022/02/15 05:00:53;;;;;;;2.27;0.90;;;;;;;;;;10496889;28;20040;-74
2022/02/15 05:05:56;;;;;;;6.07;0.90;;;;;;;;;;10474584;28;20040;-74
2022/02/15 05:10:59;;;;;;;2.43;1.17;;;;;;;;;;10478681;28;20043;-74
2022/02/15 05:16:03;;;;;;;5.10;1.17;;;;;;;;;;10475723;28;20102;-74
2022/02/15 05:21:06;;;;;;;1.70;1.00;;;;;;;;;;10475673;28;21393;-73
2022/02/15 05:26:10;;;;;;;2.13;1.23;;;;;;;;;;10495464;28;20044;-74
2022/02/15 05:31:14;;;;;;;0.73;0.50;;;;;;;;;;10496614;28;20373;-76
2022/02/15 05:36:17;;;;;;;;;;;;;;;;;;10480732;28;20074;-76
2022/02/15 05:41:20;;;;;;;1.00;0.60;;;;;;;;;;10478785;28;19932;-76
2022/02/15 05:46:25;;;;;;;1.63;0.85;;;;;;;;;;10506109;28;20293;-77
2022/02/15 05:51:29;;;;;;;1.03;0.60;;;;;;;;;;10511230;28;20040;-76
2022/02/15 05:56:32;;;;;;;1.30;0.93;;;;;;;;;;10507183;28;20078;-74
2022/02/15 06:01:35;;;;;;;;;;;;;;;;;;10483292;28;20105;-77
2022/02/15 06:06:40;;;;;;;1.10;0.93;;;;;;;;;;10508561;28;19997;-75
2022/02/15 06:11:43;;;;;;;5.07;1.50;;;;;;;;;;10510843;28;20483;-76
2022/02/15 06:16:45;;;;;;;1.07;0.80;;;;;;;;;;10474801;28;20070;-74
2022/02/15 06:21:49;;;;;;;1.37;0.70;;;;;;;;;;10478997;28;20049;-73
2022/02/15 06:26:52;;;;;;;;;;;;;;;;;;10498922;28;20131;-73
2022/02/15 06:31:55;;;;;;;1.70;0.40;;;;;;;;;;10482999;28;20018;-74
2022/02/15 06:36:59;;;;;;;2.77;1.57;;;;;;;;;;10477239;28;20492;-75
2022/02/15 06:42:02;;;;;;;;;;;;;;;;;;10492894;28;20446;-74
2022/02/15 06:47:05;;;;;;;0.50;0.47;;;;;;;;;;10485979;28;20606;-74
2022/02/15 06:52:09;;;;;;;2.33;1.10;;;;;;;;;;10486684;28;20044;-75
2022/02/15 06:57:11;;;;;;;;;;;;;;;;;;10503924;28;20160;-75
2022/02/15 07:02:18;;;;;;;1.23;0.93;;;;;;;;;;10481568;28;19931;-74
2022/02/15 07:07:22;;;;;;;0.70;0.60;;;;;;;;;;10495563;28;20036;-74
2022/02/15 07:12:26;;;;;;;2.63;0.90;;;;;;;;;;10480389;28;20051;-73
2022/02/15 07:17:28;;;;;;;4.30;1.30;;;;;;;;;;10475091;28;20477;-73
2022/02/15 07:22:32;;;;;;;7.57;1.63;;;;;;;;;;10495927;28;20101;-74
2022/02/15 07:27:35;;;;;;;;;;;;;;;;;;10492062;28;20093;-74
2022/02/15 07:32:39;;;;;;;2.90;1.17;;;;;;;;;;10475813;28;19947;-74
2022/02/15 07:37:46;;;;;;;1.73;0.97;;;;;;;;;;10494018;28;20041;-74
2022/02/15 07:42:50;;;;;;;3.40;1.30;;;;;;;;;;10472463;28;20049;-73
2022/02/15 07:47:53;;;;;;;0.77;0.65;;;;;;;;;;10477496;28;20044;-74
2022/02/15 07:52:58;;;;;;;2.50;1.10;;;;;;;;;;10460519;28;20047;-74
2022/02/15 07:58:01;;;;;;;6.20;2.10;;;;;;;;;;10483025;28;20450;-74
2022/02/15 08:03:05;;;;;;;4.63;1.93;;;;;;;;;;10473276;28;20032;-75
2022/02/15 08:08:09;;;;;;;8.20;2.77;;;;;;;;;;10486041;28;20040;-74
2022/02/15 08:13:18;;;;;;;7.43;2.03;;;;;;;;;;10488029;28;20055;-74
2022/02/15 08:18:21;;;;;;;6.80;3.10;;;;;;;;;;10479139;28;20442;-73
2022/02/15 08:23:27;;;;;;;7.67;2.67;;;;;;;;;;10484117;28;20033;-73
2022/02/15 08:28:31;;;;;;;4.90;2.27;;;;;;;;;;10469558;28;20036;-73
2022/02/15 08:33:34;;;;;;;4.18;1.35;;;;;;;;;;10492208;28;20040;-74
2022/02/15 08:38:38;;;;;;;2.77;1.40;;;;;;;;;;10473972;28;20064;-74
2022/02/15 08:43:40;;;;;;;;;;;;;;;;;;10466192;28;20071;-74
2022/02/15 08:48:43;;;;;;;1.43;1.10;;;;;;;;;;10469679;28;19930;-73
2022/02/15 08:53:50;;;;;;;6.43;1.40;;;;;;;;;;10497989;28;20036;-74
2022/02/15 08:58:53;;;;;;;2.47;0.93;;;;;;;;;;10484152;28;20128;-73
2022/02/15 09:03:56;;;;;;;3.70;1.73;;;;;;;;;;10490969;28;20804;-74
2022/02/15 09:09:00;;;;;;;5.95;1.90;;;;;;;;;;10471513;28;20365;-75
2022/02/15 09:14:02;;;;;;;;;;;;;;;;;;10493671;28;20040;-72
2022/02/15 09:19:06;;;;;;;5.63;1.33;;;;;;;;;;10494620;28;20404;-73
2022/02/15 09:24:11;;;;;;;3.93;1.50;;;;;;;;;;10478255;28;20458;-74
2022/02/15 09:29:13;;;;;;;;;;;;;;;;;;10497600;28;20040;-74
2022/02/15 09:34:18;;;;;;;7.13;1.30;;;;;;;;;;10497150;28;19923;-75
2022/02/15 09:39:23;;;;;;;3.97;1.40;;;;;;;;;;10491787;28;20131;-75
2022/02/15 09:44:25;;;;;;;;;;;;;;;;;;10484210;28;20032;-74
2022/02/15 09:54:50;;;;;;;1.80;1.10;;;;;;;;;;10493351;28;20044;-74
2022/02/15 09:59:54;;;;;;;0.95;0.57;;;;;;;;;;10489685;28;20043;-75
2022/02/15 10:04:58;;;;;;;2.40;1.42;;;;;;;;;;10480632;28;20109;-74
2022/02/15 10:10:03;;;;;;;1.20;0.82;;;;;;;;;;10478144;28;20039;-75
2022/02/15 10:15:09;;;;;;;3.30;1.10;;;;;;;;;;10476056;28;20060;-74
2022/02/15 10:20:12;;;;;;;2.42;1.02;;;;;;;;;;10493941;28;20115;-74
2022/02/15 10:25:16;;;;;;;1.35;0.80;;;;;;;;;;10491304;28;20032;-74
2022/02/15 10:30:18;;;;;;;;;;;;;;;;;;10477051;28;20132;-74
2022/02/15 10:35:25;;;;;;;2.15;1.20;;;;;;;;;;10492439;28;19951;-74
2022/02/15 10:40:30;;;;;;;0.40;0.40;;;;;;;;;;10475031;28;20055;-75
2022/02/15 10:45:32;;;;;;;;;;;;;;;;;;10501232;28;20045;-74
2022/02/15 10:50:37;;;;;;;0.95;0.57;;;;;;;;;;10499578;28;19986;-72
2022/02/15 10:55:41;;;;;;;2.17;0.95;;;;;;;;;;10495788;28;20040;-75
2022/02/15 11:00:45;;;;;;;1.58;0.60;;;;;;;;;;10497037;28;20055;-74
2022/02/15 11:05:49;;;;;;;1.02;0.70;;;;;;;;;;10477610;28;20060;-73
2022/02/15 11:10:56;;;;;;;0.65;0.40;;;;;;;;;;10486077;28;20048;-74
2022/02/15 11:16:01;;;;;;;2.63;0.55;;;;;;;;;;10489983;28;20028;-73
2022/02/15 11:21:05;;;;;;;5.90;1.10;;;;;;;;;;10489950;28;20044;-73
2022/02/15 11:26:11;;;;;;;1.30;0.70;;;;;;;;;;10477861;28;20043;-74
2022/02/15 11:31:24;;;;;;;1.38;0.85;;;;;;;;;;10468662;28;20185;-74
2022/02/15 11:36:27;;;;;;;4.80;1.13;;;;;;;;;;10479226;28;20067;-74
2022/02/15 11:41:42;;;;;;;0.90;0.77;;;;;;;;;;10471342;28;20098;-74
2022/02/15 11:46:46;;;;;;;1.52;0.80;;;;;;;;;;10477074;28;20093;-74
2022/02/15 11:51:49;;;;;;;;;;;;;;;;;;10469993;28;20059;-73
2022/02/15 11:56:54;;;;;;;2.72;1.33;;;;;;;;;;10490007;28;19932;-74
2022/02/15 12:01:58;;;;;;;0.98;0.90;;;;;;;;;;10500340;28;20056;-74
2022/02/15 12:07:01;;;;;;;3.70;1.70;;;;;;;;;;10478886;28;20033;-74
2022/02/15 12:12:11;;;;;;;1.40;0.93;;;;;;;;;;10496746;28;20041;-75
2022/02/15 12:17:22;;;;;;;2.50;0.95;;;;;;;;;;10489237;28;20104;-74
2022/02/15 12:22:42;;;;;;;4.35;1.58;;;;;;;;;;10487337;28;20489;-73
2022/02/15 12:27:47;;;;;;;3.45;1.75;;;;;;;;;;10491556;28;20059;-74
2022/02/15 12:32:50;;;;;;;3.35;1.70;;;;;;;;;;10496255;28;20041;-73
2022/02/15 12:37:53;;;;;;;2.15;1.17;;;;;;;;;;10499785;28;20043;-75
2022/02/15 12:42:57;;;;;;;4.25;2.05;;;;;;;;;;10464427;28;20102;-72
2022/02/15 12:48:00;;;;;;;3.65;1.65;;;;;;;;;;10481594;28;20043;-73
2022/02/15 12:53:03;;;;;;;3.08;1.60;;;;;;;;;;10495952;28;20117;-76
2022/02/15 12:58:13;;;;;;;2.47;1.30;;;;;;;;;;10478163;28;20154;-76
2022/02/15 13:03:19;;;;;;;1.95;1.45;;;;;;;;;;10495618;28;20306;-73
2022/02/15 13:08:26;;;;;;;2.38;1.55;;;;;;;;;;10478360;28;20124;-74
2022/02/15 13:13:30;;;;;;;3.92;2.13;;;;;;;;;;10482560;28;20107;-74
2022/02/15 13:18:41;;;;;;;1.50;1.02;;;;;;;;;;10499330;28;20033;-75
2022/02/15 13:23:54;;;;;;;4.55;2.28;;;;;;;;;;10478459;28;20040;-73
2022/02/15 13:28:58;;;;;;;4.03;1.75;;;;;;;;;;10484215;28;20122;-73
2022/02/15 13:34:06;;;;;;;1.20;0.85;;;;;;;;;;10496852;28;20028;-74
2022/02/15 13:39:09;;;;;;;5.05;2.58;;;;;;;;;;10470206;28;20037;-75
2022/02/15 13:44:13;;;;;;;3.95;1.83;;;;;;;;;;10499560;28;20028;-75
2022/02/15 13:49:16;;;;;;;1.42;0.90;;;;;;;;;;10469741;28;20029;-75
2022/02/15 13:54:22;;;;;;;2.90;1.52;;;;;;;;;;10501506;28;20037;-75
2022/02/15 13:59:26;;;;;;;3.75;1.70;;;;;;;;;;10474310;28;20063;-74
2022/02/15 14:04:29;;;;;;;;;;;;;;;;;;10483968;28;20101;-74
2022/02/15 14:09:32;;;;;;;2.42;1.45;;;;;;;;;;10486750;28;20388;-74
2022/02/15 14:14:38;;;;;;;2.85;0.93;;;;;;;;;;10477806;28;20048;-73
2022/02/15 14:19:40;;;;;;;3.28;1.40;;;;;;;;;;10480095;28;20060;-74
2022/02/15 14:24:43;;;;;;;5.78;2.40;;;;;;;;;;10473896;28;20040;-74
2022/02/15 14:30:09;;;;;;;5.35;2.40;;;;;;;;;;10483905;28;20180;-75
2022/02/15 14:35:13;;;;;;;3.13;1.65;;;;;;;;;;10489979;28;20052;-74
2022/02/15 14:40:44;;;;;;;3.45;1.48;;;;;;;;;;10490243;28;20746;-74
2022/02/15 14:45:50;;;;;;;3.20;1.65;;;;;;;;;;10466668;28;20044;-74
2022/02/15 14:50:57;;;;;;;2.05;1.10;;;;;;;;;;10473162;28;20039;-73
2022/02/15 14:56:01;;;;;;;0.95;0.80;;;;;;;;;;10468648;28;20049;-73
2022/02/15 15:01:06;;;;;;;1.75;0.40;;;;;;;;;;10487326;28;20139;-74
2022/02/15 15:06:09;;;;;;;0.73;0.50;;;;;;;;;;10477332;28;20047;-73
2022/02/15 15:11:12;;;;;;;0.35;0.32;;;;;;;;;;10501852;28;20036;-73
2022/02/15 15:16:16;;;;;;;0.53;0.30;;;;;;;;;;10478438;28;20067;-76
2022/02/15 15:21:22;;;;;;;;;;;;;;;;;;10472363;28;20040;-74
2022/02/15 15:26:25;;;;;;;0.20;0.20;;;;;;;;;;10480872;28;20352;-74
2022/02/15 15:31:29;;;;;;;3.87;0.77;;;;;;;;;;10480910;28;20477;-76
2022/02/15 15:36:32;;;;;;;0.90;0.60;;;;;;;;;;10502077;28;20040;-74
2022/02/15 15:41:37;;;;;;;1.70;0.57;;;;;;;;;;10481961;28;20048;-75
2022/02/15 15:46:41;;;;;;;0.33;0.33;;;;;;;;;;10486589;28;20472;-75
2022/02/15 15:51:45;;;;;;;2.73;1.23;;;;;;;;;;10507921;28;20040;-74
2022/02/15 15:56:50;;;;;;;1.50;0.67;;;;;;;;;;10482479;28;20070;-73
2022/02/15 16:01:54;;;;;;;0.73;0.60;;;;;;;;;;10492966;28;20036;-74
2022/02/15 16:06:57;;;;;;;;;;;;;;;;;;10481763;28;20044;-74
2022/02/15 16:12:20;;;;;;;1.13;0.53;;;;;;;;;;10472691;28;20011;-74
2022/02/15 16:17:24;;;;;;;3.97;0.70;;;;;;;;;;10496820;28;20133;-74
2022/02/15 16:22:26;;;;;;;;;;;;;;;;;;10485103;28;20044;-74
2022/02/15 16:27:29;;;;;;;1.30;0.93;;;;;;;;;;10495924;28;19959;-74
2022/02/15 16:32:34;;;;;;;0.70;0.63;;;;;;;;;;10497970;28;20910;-74
2022/02/15 16:37:36;;;;;;;;;;;;;;;;;;10480218;28;20063;-73
2022/02/15 16:42:39;;;;;;;0.73;0.47;;;;;;;;;;10496247;28;19936;-74
2022/02/15 16:47:44;;;;;;;2.13;0.70;;;;;;;;;;10494644;28;20128;-75
2022/02/15 16:52:46;;;;;;;;;;;;;;;;;;10475668;28;20438;-74
2022/02/15 16:57:49;;;;;;;1.53;0.90;;;;;;;;;;10473506;28;19924;-76
2022/02/15 17:02:54;;;;;;;2.50;1.30;;;;;;;;;;10493391;28;20052;-75
2022/02/15 17:07:57;;;;;;;2.40;1.30;;;;;;;;;;10482702;28;20077;-74
2022/02/15 17:12:59;;;;;;;1.57;0.93;;;;;;;;;;10481863;28;20548;-74
2022/02/15 17:18:04;;;;;;;4.50;2.40;;;;;;;;;;10478864;28;20040;-74
2022/02/15 17:23:06;;;;;;;;;;;;;;;;;;10476670;28;20118;-74
2022/02/15 17:28:10;;;;;;;1.07;0.63;;;;;;;;;;10469162;28;19942;-72
2022/02/15 17:33:21;;;;;;;0.47;0.40;;;;;;;;;;10472775;28;20036;-75
2022/02/15 17:38:24;;;;;;;3.83;1.70;;;;;;;;;;10484008;28;20139;-72
2022/02/15 17:43:27;;;;;;;0.73;0.43;;;;;;;;;;10486813;28;20037;-74
2022/02/15 17:48:32;;;;;;;3.03;1.53;;;;;;;;;;10479642;28;20197;-75
2022/02/15 17:53:36;;;;;;;3.10;1.30;;;;;;;;;;10494288;28;20032;-74
2022/02/15 17:58:39;;;;;;;3.97;1.50;;;;;;;;;;10496340;28;20082;-73
2022/02/15 18:03:43;;;;;;;3.67;1.93;;;;;;;;;;10485392;28;20147;-74
2022/02/15 18:08:50;;;;;;;2.97;1.33;;;;;;;;;;10478664;28;20040;-73
2022/02/15 18:13:52;;;;;;;4.57;1.90;;;;;;;;;;10498440;28;20111;-74
2022/02/15 18:18:57;;;;;;;2.67;0.90;;;;;;;;;;10485292;28;20036;-75
2022/02/15 18:24:00;;;;;;;7.30;1.10;;;;;;;;;;10484386;28;20101;-74
2022/02/15 18:29:04;;;;;;;3.13;2.00;;;;;;;;;;10485151;28;20036;-73
2022/02/15 18:34:08;;;;;;;1.77;1.30;;;;;;;;;;10474706;28;20066;-74
2022/02/15 18:39:11;;;;;;;3.35;1.67;;;;;;;;;;10478664;28;20060;-73
2022/02/15 18:44:13;;;;;;;6.20;1.93;;;;;;;;;;10488492;28;20040;-73
2022/02/15 18:49:18;;;;;;;5.23;2.20;;;;;;;;;;10481233;28;20036;-73
2022/02/15 18:54:22;;;;;;;4.17;1.30;;;;;;;;;;10488904;28;20523;-75
2022/02/15 18:59:25;;;;;;;3.22;1.40;;;;;;;;;;10474295;28;20043;-74
2022/02/15 19:04:29;;;;;;;1.57;1.20;;;;;;;;;;10492058;28;20556;-73
2022/02/15 19:09:33;;;;;;;3.23;1.43;;;;;;;;;;10501746;28;20120;-74
2022/02/15 19:14:36;;;;;;;1.58;0.98;;;;;;;;;;10497597;28;20113;-75
2022/02/15 19:19:40;;;;;;;1.90;1.30;;;;;;;;;;10477016;28;20117;-73
2022/02/15 19:24:43;;;;;;;;;;;;;;;;;;10481599;28;20066;-74
2022/02/15 19:29:46;;;;;;;4.90;1.37;;;;;;;;;;10484359;28;19924;-75
2022/02/15 19:34:50;;;;;;;4.47;1.70;;;;;;;;;;10482814;28;20550;-74
2022/02/15 19:39:56;;;;;;;5.93;2.07;;;;;;;;;;10483204;28;20506;-73
2022/02/15 19:44:58;;;;;;;3.97;1.70;;;;;;;;;;10481917;28;20148;-74
2022/02/15 19:50:06;;;;;;;2.37;1.40;;;;;;;;;;10485633;28;20032;-74
2022/02/15 19:55:10;;;;;;;4.90;1.90;;;;;;;;;;10499341;28;20089;-74
2022/02/15 20:00:13;;;;;;;2.33;1.60;;;;;;;;;;10497351;28;20040;-72
2022/02/15 20:05:17;;;;;;;4.47;1.50;;;;;;;;;;10501208;28;20043;-73
2022/02/15 20:10:19;;;;;;;;;;;;;;;;;;10495801;28;20078;-74
2022/02/15 20:15:22;;;;;;;2.87;1.43;;;;;;;;;;10498459;28;20019;-75
2022/02/15 20:20:27;;;;;;;3.20;1.23;;;;;;;;;;10476907;28;20389;-74
2022/02/15 20:25:30;;;;;;;5.93;2.53;;;;;;;;;;10486750;28;20040;-74
2022/02/15 20:30:33;;;;;;;1.23;0.67;;;;;;;;;;10494937;28;20040;-74
2022/02/15 20:35:37;;;;;;;2.13;1.20;;;;;;;;;;10482205;28;20056;-74
2022/02/15 20:40:40;;;;;;;3.43;1.60;;;;;;;;;;10493116;28;20588;-74
2022/02/15 20:45:43;;;;;;;2.10;1.13;;;;;;;;;;10499046;28;20087;-73
2022/02/15 20:50:48;;;;;;;3.30;1.43;;;;;;;;;;10470432;28;20032;-75
2022/02/15 20:55:54;;;;;;;;;;;;;;;;;;10479847;28;20048;-75
2022/02/15 21:00:58;;;;;;;3.43;1.83;;;;;;;;;;10468765;28;19975;-74
2022/02/15 21:06:02;;;;;;;0.45;0.45;;;;;;;;;;10494592;28;20127;-75
2022/02/15 21:11:05;;;;;;;;;;;;;;;;;;10473421;28;20092;-76
2022/02/15 21:16:09;;;;;;;3.53;2.13;;;;;;;;;;10502641;28;20050;-78
2022/02/15 21:21:13;;;;;;;4.73;2.17;;;;;;;;;;10503807;28;20284;-76
2022/02/15 21:26:15;;;;;;;;;;;;;;;;;;10492375;28;20055;-76
2022/02/15 21:31:19;;;;;;;6.27;2.17;;;;;;;;;;10468436;28;19943;-76
2022/02/15 21:36:25;;;;;;;3.72;1.83;;;;;;;;;;10478751;28;20078;-76
2022/02/15 21:41:28;;;;;;;2.27;1.43;;;;;;;;;;10485868;28;20096;-77
2022/02/15 21:46:31;;;;;;;2.87;1.30;;;;;;;;;;10512683;28;20049;-78
2022/02/15 21:51:36;;;;;;;3.03;1.47;;;;;;;;;;10488367;28;20488;-78
2022/02/15 21:56:40;;;;;;;2.70;1.00;;;;;;;;;;10484718;28;20116;-78
2022/02/15 22:01:43;;;;;;;3.67;1.37;;;;;;;;;;10487109;28;20464;-78
2022/02/15 22:06:47;;;;;;;2.17;1.77;;;;;;;;;;10472824;28;20048;-76
2022/02/15 22:11:51;;;;;;;1.57;1.27;;;;;;;;;;10458896;28;20052;-77
2022/02/15 22:16:54;;;;;;;2.50;1.47;;;;;;;;;;10492384;28;20041;-77
2022/02/15 22:21:58;;;;;;;1.70;1.03;;;;;;;;;;10478710;28;20044;-74
2022/02/15 22:27:02;;;;;;;3.00;1.77;;;;;;;;;;10474569;28;20048;-77
2022/02/15 22:32:04;;;;;;;2.20;1.07;;;;;;;;;;10468114;28;20419;-77
2022/02/15 22:37:10;;;;;;;2.83;1.35;;;;;;;;;;10474585;28;20040;-78
2022/02/15 22:42:13;;;;;;;1.73;1.07;;;;;;;;;;10477963;28;20129;-77
2022/02/15 22:47:17;;;;;;;4.00;2.03;;;;;;;;;;10486922;28;20043;-75
2022/02/15 22:52:23;;;;;;;1.95;1.17;;;;;;;;;;10473538;28;20044;-74
2022/02/15 22:57:26;;;;;;;1.93;0.90;;;;;;;;;;10455831;28;20090;-75
2022/02/15 23:02:29;;;;;;;2.23;1.00;;;;;;;;;;10460240;28;20090;-75
2022/02/15 23:18:14;;;;;;;0.87;0.73;;;;;;;;;;10478468;28;20087;-76
2022/02/15 23:23:19;;;;;;;3.97;1.88;;;;;;;;;;10464086;28;20515;-75
2022/02/15 23:28:23;;;;;;;0.57;0.57;;;;;;;;;;10475175;28;20041;-75
2022/02/15 23:33:26;;;;;;;1.77;0.73;;;;;;;;;;10472249;28;20151;-76
2022/02/15 23:38:31;;;;;;;3.53;1.40;;;;;;;;;;10461973;28;20071;-76
2022/02/15 23:43:35;;;;;;;3.23;0.73;;;;;;;;;;10465545;28;20120;-76
2022/02/15 23:48:38;;;;;;;2.45;1.23;;;;;;;;;;10462397;28;20159;-74
2022/02/15 23:53:43;;;;;;;0.90;0.70;;;;;;;;;;10481127;28;20120;-77
2022/02/15 23:58:46;;;;;;;;;;;;;;;;;;10481578;28;20056;-76
